createdAt,value
2019-02-26T00:02:02.741Z,1.99
2019-02-26T00:04:34.459Z,1.94
2019-02-26T00:07:03.391Z,1.91
2019-02-26T00:09:35.195Z,1.98
2019-02-26T00:12:04.667Z,1.93
2019-02-26T00:14:34.196Z,1.94
2019-02-26T00:17:06.226Z,1.97
2019-02-26T00:19:35.813Z,2.02
2019-02-26T00:22:07.746Z,2.04
2019-02-26T00:24:39.889Z,2.03
2019-02-26T00:27:10.278Z,2.05
2019-02-26T00:29:39.533Z,2.04
2019-02-26T00:32:10.085Z,2.05
2019-02-26T00:34:41.167Z,2.08
2019-02-26T00:37:11.571Z,2.05
2019-02-26T00:39:40.827Z,2.03
2019-02-26T00:42:11.281Z,2.02
2019-02-26T00:44:40.844Z,2.04
2019-02-26T00:47:10.078Z,2.02
2019-02-26T00:49:39.342Z,1.99
2019-02-26T00:52:13.376Z,2.02
2019-02-26T00:54:42.843Z,1.87
2019-02-26T00:57:13.864Z,1.73
2019-02-26T00:59:44.069Z,1.71
2019-02-26T01:02:16.848Z,1.67
2019-02-26T01:04:51.072Z,1.61
2019-02-26T01:07:21.336Z,1.61
2019-02-26T01:09:52.477Z,1.56
2019-02-26T01:12:24.799Z,1.60
2019-02-26T01:14:54.024Z,1.63
2019-02-26T01:17:26.647Z,1.62
2019-02-26T01:19:56.573Z,1.61
2019-02-26T01:22:31.089Z,1.58
2019-02-26T01:25:00.273Z,1.52
2019-02-26T01:27:29.481Z,1.56
2019-02-26T01:30:00.578Z,1.44
2019-02-26T01:32:31.151Z,1.55
2019-02-26T01:35:03.299Z,1.51
2019-02-26T01:37:34.318Z,1.51
2019-02-26T01:40:07.379Z,1.52
2019-02-26T01:42:35.489Z,1.55
2019-02-26T01:45:05.704Z,1.57
2019-02-26T01:47:34.944Z,1.50
2019-02-26T01:50:09.381Z,1.49
2019-02-26T01:52:39.373Z,1.49
2019-02-26T01:55:09.779Z,1.48
2019-02-26T01:57:42.491Z,1.36
2019-02-26T02:00:15.319Z,1.38
2019-02-26T02:02:45.389Z,1.29
2019-02-26T02:05:15.001Z,1.13
2019-02-26T02:07:48.462Z,1.05
2019-02-26T02:10:16.284Z,0.95
2019-02-26T02:12:47.399Z,0.98
2019-02-26T02:15:20.459Z,0.93
2019-02-26T02:17:47.888Z,0.81
2019-02-26T02:20:21.030Z,0.79
2019-02-26T02:22:48.105Z,0.80
2019-02-26T02:25:17.615Z,0.92
2019-02-26T02:27:49.700Z,0.93
2019-02-26T02:30:23.069Z,1.01
2019-02-26T02:32:53.713Z,1.06
2019-02-26T02:35:20.452Z,1.11
2019-02-26T02:37:51.449Z,1.20
2019-02-26T02:40:21.355Z,1.19
2019-02-26T02:42:53.000Z,1.16
2019-02-26T02:45:24.696Z,1.22
2019-02-26T02:47:57.791Z,1.22
2019-02-26T02:50:24.905Z,1.25
2019-02-26T02:52:56.851Z,1.24
2019-02-26T02:55:25.577Z,1.23
2019-02-26T02:57:57.844Z,1.23
2019-02-26T03:00:28.797Z,1.26
2019-02-26T03:02:58.437Z,1.25
2019-02-26T03:05:31.322Z,1.29
2019-02-26T03:07:59.019Z,1.30
2019-02-26T03:10:33.482Z,1.29
2019-02-26T03:13:05.515Z,1.26
2019-02-26T03:15:35.907Z,1.30
2019-02-26T03:18:07.142Z,1.29
2019-02-26T03:20:40.338Z,1.26
2019-02-26T03:23:19.849Z,1.25
2019-02-26T03:25:50.506Z,1.26
2019-02-26T03:28:20.475Z,1.31
2019-02-26T03:30:51.820Z,1.34
2019-02-26T03:33:21.074Z,1.32
2019-02-26T03:35:52.630Z,1.25
2019-02-26T03:38:24.412Z,1.25
2019-02-26T03:40:57.475Z,1.22
2019-02-26T03:43:25.245Z,1.20
2019-02-26T03:45:57.485Z,1.07
2019-02-26T03:48:26.775Z,1.01
2019-02-26T03:51:00.567Z,0.93
2019-02-26T03:53:30.230Z,0.86
2019-02-26T03:56:01.986Z,0.82
2019-02-26T03:58:29.217Z,0.89
2019-02-26T04:01:04.524Z,0.95
2019-02-26T04:03:32.136Z,0.98
2019-02-26T04:06:06.687Z,0.95
2019-02-26T04:08:38.602Z,0.93
2019-02-26T04:11:22.811Z,0.95
2019-02-26T04:13:52.176Z,0.94
2019-02-26T04:16:22.212Z,0.91
2019-02-26T04:18:52.122Z,0.92
2019-02-26T04:21:23.202Z,0.98
2019-02-26T04:23:55.218Z,0.97
2019-02-26T04:27:16.333Z,0.97
2019-02-26T04:30:13.582Z,0.97
2019-02-26T04:33:27.818Z,0.93
2019-02-26T04:36:29.078Z,0.92
2019-02-26T04:39:36.863Z,0.90
2019-02-26T04:42:59.311Z,0.87
2019-02-26T04:45:57.253Z,0.95
2019-02-26T04:48:29.156Z,0.94
2019-02-26T04:51:00.278Z,1.03
2019-02-26T04:53:35.906Z,1.04
2019-02-26T04:56:11.971Z,1.11
2019-02-26T04:58:45.403Z,1.08
2019-02-26T05:01:16.415Z,1.07
2019-02-26T05:03:45.776Z,1.09
2019-02-26T05:06:15.309Z,1.06
2019-02-26T05:08:44.518Z,0.96
2019-02-26T05:11:19.056Z,0.98
2019-02-26T05:13:45.127Z,0.98
2019-02-26T05:16:14.374Z,0.99
2019-02-26T05:18:45.951Z,0.95
2019-02-26T05:21:14.594Z,0.98
2019-02-26T05:23:43.812Z,0.98
2019-02-26T05:26:18.268Z,0.90
2019-02-26T05:28:49.158Z,0.96
2019-02-26T05:31:18.236Z,0.92
2019-02-26T05:33:50.122Z,0.87
2019-02-26T05:36:19.230Z,0.84
2019-02-26T05:38:51.736Z,0.89
2019-02-26T05:41:22.110Z,0.85
2019-02-26T05:43:55.327Z,0.85
2019-02-26T05:46:25.047Z,0.87
2019-02-26T05:48:54.208Z,0.90
2019-02-26T05:51:27.446Z,0.86
2019-02-26T05:54:01.295Z,0.91
2019-02-26T05:56:29.784Z,0.82
2019-02-26T05:59:04.313Z,0.85
2019-02-26T06:01:36.380Z,0.83
2019-02-26T06:04:14.921Z,0.87
2019-02-26T06:06:44.954Z,0.92
2019-02-26T06:09:14.503Z,0.93
2019-02-26T06:11:49.421Z,0.91
2019-02-26T06:14:14.802Z,0.96
2019-02-26T06:16:46.184Z,0.98
2019-02-26T06:19:17.766Z,0.97
2019-02-26T06:21:49.226Z,1.06
2019-02-26T06:24:22.384Z,1.07
2019-02-26T06:26:49.749Z,1.23
2019-02-26T06:29:24.261Z,1.38
2019-02-26T06:31:56.875Z,1.43
2019-02-26T06:34:27.275Z,1.54
2019-02-26T06:37:16.488Z,1.60
2019-02-26T06:39:52.625Z,1.71
2019-02-26T06:42:21.163Z,1.73
2019-02-26T06:44:51.361Z,1.73
2019-02-26T06:47:23.550Z,1.74
2019-02-26T06:49:53.368Z,1.89
2019-02-26T06:52:22.611Z,2.00
2019-02-26T06:54:57.317Z,2.12
2019-02-26T06:57:23.084Z,2.33
2019-02-26T06:59:53.684Z,2.56
2019-02-26T07:02:28.148Z,2.71
2019-02-26T07:04:54.881Z,2.75
2019-02-26T07:07:25.426Z,2.98
2019-02-26T07:09:57.429Z,3.04
2019-02-26T07:12:26.749Z,3.44
2019-02-26T07:14:58.061Z,3.55
2019-02-26T07:17:31.917Z,3.80
2019-02-26T07:20:00.384Z,4.17
2019-02-26T07:22:30.478Z,4.27
2019-02-26T07:25:00.812Z,4.69
2019-02-26T07:27:31.998Z,5.77
2019-02-26T07:30:03.688Z,7.38
2019-02-26T07:32:38.235Z,8.91
2019-02-26T07:35:09.281Z,10.18
2019-02-26T07:37:40.356Z,10.13
2019-02-26T07:40:15.993Z,10.66
2019-02-26T07:42:46.607Z,11.43
2019-02-26T07:45:22.948Z,11.85
2019-02-26T07:47:55.894Z,13.33
2019-02-26T07:50:24.057Z,15.41
2019-02-26T07:52:55.259Z,17.13
2019-02-26T07:55:24.080Z,17.95
2019-02-26T07:57:53.386Z,19.16
2019-02-26T08:00:23.564Z,20.33
2019-02-26T08:02:56.436Z,21.21
2019-02-26T08:05:28.786Z,20.74
2019-02-26T08:07:57.814Z,20.32
2019-02-26T08:10:29.377Z,21.05
2019-02-26T08:13:01.056Z,19.90
2019-02-26T08:15:30.399Z,19.91
2019-02-26T08:18:05.189Z,19.73
2019-02-26T08:20:37.588Z,20.21
2019-02-26T08:23:10.376Z,21.70
2019-02-26T08:25:39.625Z,23.18
2019-02-26T08:28:18.560Z,22.88
2019-02-26T08:30:49.667Z,23.40
2019-02-26T08:33:19.604Z,23.77
2019-02-26T08:35:49.208Z,23.29
2019-02-26T08:38:21.820Z,23.92
2019-02-26T08:40:51.863Z,24.05
2019-02-26T08:43:23.719Z,24.35
2019-02-26T08:45:52.957Z,23.81
2019-02-26T08:48:24.514Z,22.72
2019-02-26T08:51:00.761Z,22.67
2019-02-26T08:53:31.619Z,22.21
2019-02-26T08:56:03.999Z,20.74
2019-02-26T08:58:33.566Z,20.96
2019-02-26T09:01:02.830Z,20.42
2019-02-26T09:03:40.314Z,21.83
2019-02-26T09:06:12.632Z,21.96
2019-02-26T09:08:43.155Z,21.11
2019-02-26T09:11:13.553Z,20.69
2019-02-26T09:13:43.983Z,20.19
2019-02-26T09:16:14.693Z,19.51
2019-02-26T09:18:45.812Z,19.69
2019-02-26T09:21:20.532Z,19.76
2019-02-26T09:23:54.910Z,19.54
2019-02-26T09:26:23.310Z,20.06
2019-02-26T09:28:55.414Z,21.10
2019-02-26T09:31:25.213Z,20.23
2019-02-26T09:33:54.787Z,19.86
2019-02-26T09:36:26.026Z,20.86
2019-02-26T09:38:54.982Z,20.47
2019-02-26T09:41:25.015Z,20.21
2019-02-26T09:43:54.267Z,19.79
2019-02-26T09:46:24.576Z,19.95
2019-02-26T09:48:54.568Z,19.38
2019-02-26T09:51:23.820Z,18.84
2019-02-26T09:53:54.803Z,18.36
2019-02-26T09:56:25.564Z,18.44
2019-02-26T09:58:55.601Z,17.15
2019-02-26T10:01:24.934Z,16.58
2019-02-26T10:03:56.003Z,16.02
2019-02-26T10:06:28.062Z,16.10
2019-02-26T10:08:57.981Z,15.43
2019-02-26T10:11:28.075Z,15.90
2019-02-26T10:13:57.380Z,14.90
2019-02-26T10:16:28.267Z,15.27
2019-02-26T10:19:00.054Z,16.16
2019-02-26T10:21:33.101Z,16.60
2019-02-26T10:24:04.237Z,16.83
2019-02-26T10:26:33.568Z,17.10
2019-02-26T10:29:04.865Z,17.03
2019-02-26T10:31:34.370Z,17.22
2019-02-26T10:34:07.898Z,17.16
2019-02-26T10:36:40.854Z,16.50
2019-02-26T10:39:08.646Z,15.91
2019-02-26T10:41:41.870Z,15.91
2019-02-26T10:44:14.701Z,16.04
2019-02-26T10:46:44.525Z,15.79
2019-02-26T10:49:15.351Z,16.19
2019-02-26T10:51:44.596Z,16.77
2019-02-26T10:54:18.037Z,17.43
2019-02-26T10:56:47.660Z,17.99
2019-02-26T10:59:19.598Z,17.87
2019-02-26T11:01:53.248Z,18.84
2019-02-26T11:04:22.156Z,18.99
2019-02-26T11:06:53.174Z,18.09
2019-02-26T11:09:27.181Z,18.27
2019-02-26T11:11:58.356Z,18.00
2019-02-26T11:14:26.617Z,17.17
2019-02-26T11:16:56.626Z,16.36
2019-02-26T11:19:29.158Z,16.06
2019-02-26T11:22:00.608Z,16.08
2019-02-26T11:24:33.673Z,15.68
2019-02-26T11:27:03.156Z,16.09
2019-02-26T11:29:35.858Z,16.52
2019-02-26T11:32:07.601Z,16.33
2019-02-26T11:34:38.612Z,17.19
2019-02-26T11:37:08.971Z,17.93
2019-02-26T11:39:38.491Z,18.34
2019-02-26T11:42:08.074Z,18.67
2019-02-26T11:44:39.046Z,19.44
2019-02-26T11:47:10.774Z,20.27
2019-02-26T11:49:41.852Z,19.70
2019-02-26T11:52:11.898Z,18.38
2019-02-26T11:54:44.546Z,18.05
2019-02-26T11:57:15.183Z,18.33
2019-02-26T11:59:49.996Z,18.42
2019-02-26T12:02:26.681Z,18.67
2019-02-26T12:04:50.203Z,18.43
2019-02-26T12:07:19.455Z,16.87
2019-02-26T12:09:50.615Z,16.54
2019-02-26T12:12:19.891Z,16.50
2019-02-26T12:14:50.191Z,16.59
2019-02-26T12:17:19.418Z,16.65
2019-02-26T12:19:57.897Z,16.51
2019-02-26T12:22:29.629Z,17.18
2019-02-26T12:25:01.833Z,17.53
2019-02-26T12:27:30.793Z,17.54
2019-02-26T12:30:00.548Z,17.61
2019-02-26T12:32:29.707Z,17.66
2019-02-26T12:35:03.434Z,18.00
2019-02-26T12:37:33.297Z,18.50
2019-02-26T12:40:02.993Z,18.07
2019-02-26T12:42:34.037Z,17.69
2019-02-26T12:45:07.819Z,17.89
2019-02-26T12:47:36.397Z,17.90
2019-02-26T12:50:09.680Z,17.72
2019-02-26T12:52:38.515Z,17.82
2019-02-26T12:55:10.418Z,17.69
2019-02-26T12:57:39.566Z,17.57
2019-02-26T13:00:16.330Z,17.62
2019-02-26T13:02:45.848Z,17.74
2019-02-26T13:05:22.930Z,17.83
2019-02-26T13:07:51.230Z,17.71
2019-02-26T13:10:22.188Z,18.08
2019-02-26T13:15:25.525Z,18.89
2019-02-26T13:17:54.771Z,19.30
2019-02-26T13:20:24.547Z,19.67
2019-02-26T13:23:16.223Z,19.67
2019-02-26T13:25:30.260Z,19.76
2019-02-26T13:28:00.319Z,20.06
2019-02-26T13:30:29.841Z,20.32
2019-02-26T13:33:05.172Z,20.69
2019-02-26T13:35:36.880Z,21.43
2019-02-26T13:38:06.156Z,21.81
2019-02-26T13:40:38.383Z,21.90
2019-02-26T13:43:08.324Z,21.85
2019-02-26T13:45:39.878Z,21.59
2019-02-26T13:48:11.055Z,21.45
2019-02-26T13:50:40.305Z,20.76
2019-02-26T13:53:10.726Z,20.12
2019-02-26T13:55:39.975Z,19.93
2019-02-26T13:58:11.872Z,19.63
2019-02-26T14:00:44.775Z,19.41
2019-02-26T14:03:14.571Z,19.48
2019-02-26T14:05:43.829Z,19.46
2019-02-26T14:08:13.047Z,19.43
2019-02-26T14:10:45.472Z,19.36
2019-02-26T14:13:15.237Z,19.24
2019-02-26T14:15:47.810Z,19.14
2019-02-26T14:18:16.985Z,18.79
2019-02-26T14:20:48.603Z,18.54
2019-02-26T14:23:18.204Z,18.34
2019-02-26T14:25:47.937Z,17.99
2019-02-26T14:28:17.179Z,17.57
2019-02-26T14:30:51.861Z,17.57
2019-02-26T14:33:21.612Z,17.44
2019-02-26T14:35:51.926Z,17.14
2019-02-26T14:38:21.306Z,17.03
2019-02-26T14:40:50.569Z,16.88
2019-02-26T14:43:19.607Z,16.84
2019-02-26T14:45:48.863Z,16.76
2019-02-26T14:48:18.415Z,16.61
2019-02-26T14:50:47.761Z,16.56
2019-02-26T14:53:17.305Z,16.52
2019-02-26T14:55:46.913Z,16.37
2019-02-26T14:58:16.149Z,16.25
2019-02-26T15:00:57.107Z,16.36
2019-02-26T15:03:18.504Z,16.48
2019-02-26T15:05:47.864Z,16.43
2019-02-26T15:08:17.103Z,16.39
2019-02-26T15:10:46.476Z,16.44
2019-02-26T15:13:16.791Z,16.38
2019-02-26T15:15:46.860Z,16.18
2019-02-26T15:18:18.531Z,16.11
2019-02-26T15:20:48.140Z,15.94
2019-02-26T15:23:30.011Z,15.86
2019-02-26T15:25:59.259Z,15.69
2019-02-26T15:28:29.050Z,15.65
2019-02-26T15:30:58.349Z,15.58
2019-02-26T15:33:27.897Z,15.42
2019-02-26T15:35:57.116Z,15.31
2019-02-26T15:38:26.369Z,15.28
2019-02-26T15:40:55.600Z,15.06
2019-02-26T15:43:25.168Z,15.07
2019-02-26T15:45:55.025Z,14.97
2019-02-26T15:48:26.839Z,14.92
2019-02-26T15:50:55.886Z,14.96
2019-02-26T15:53:25.411Z,14.93
2019-02-26T15:55:59.184Z,14.88
2019-02-26T15:58:28.215Z,14.76
2019-02-26T16:00:57.821Z,14.71
2019-02-26T16:03:29.296Z,14.68
2019-02-26T16:05:59.241Z,14.53
2019-02-26T16:08:34.620Z,14.53
2019-02-26T16:10:59.750Z,14.54
2019-02-26T16:13:30.439Z,14.54
2019-02-26T16:15:59.864Z,14.53
2019-02-26T16:18:29.568Z,14.47
2019-02-26T16:21:01.430Z,14.36
2019-02-26T16:23:31.054Z,14.23
2019-02-26T16:26:01.751Z,14.07
2019-02-26T16:28:31.031Z,14.19
2019-02-26T16:31:00.411Z,14.00
2019-02-26T16:33:29.680Z,13.91
2019-02-26T16:36:00.214Z,13.83
2019-02-26T16:38:31.892Z,13.74
2019-02-26T16:41:02.780Z,13.56
2019-02-26T16:43:33.500Z,13.36
2019-02-26T16:46:03.068Z,13.15
2019-02-26T16:48:33.700Z,12.96
2019-02-26T16:51:03.104Z,12.74
2019-02-26T16:53:34.295Z,12.55
2019-02-26T16:56:04.968Z,12.38
2019-02-26T16:58:35.578Z,12.13
2019-02-26T17:01:07.635Z,12.02
2019-02-26T17:03:37.252Z,11.97
2019-02-26T17:06:07.843Z,11.92
2019-02-26T17:08:37.616Z,11.87
2019-02-26T17:11:13.339Z,11.75
2019-02-26T17:13:44.207Z,11.74
2019-02-26T17:16:13.397Z,11.72
2019-02-26T17:18:43.360Z,11.70
2019-02-26T17:21:13.230Z,11.71
2019-02-26T17:23:44.857Z,11.68
2019-02-26T17:26:14.495Z,11.67
2019-02-26T17:28:46.357Z,11.64
2019-02-26T17:31:16.693Z,11.63
2019-02-26T17:33:47.230Z,11.60
2019-02-26T17:36:19.450Z,11.58
2019-02-26T17:38:51.541Z,11.40
2019-02-26T17:41:19.957Z,11.23
2019-02-26T17:43:49.204Z,11.17
2019-02-26T17:46:18.413Z,11.20
2019-02-26T17:48:48.585Z,11.21
2019-02-26T17:51:21.202Z,11.26
2019-02-26T17:53:52.781Z,11.25
2019-02-26T17:56:26.681Z,11.22
2019-02-26T17:58:56.690Z,11.25
2019-02-26T18:01:25.913Z,11.24
2019-02-26T18:03:56.321Z,11.25
2019-02-26T18:06:26.037Z,11.27
2019-02-26T18:08:56.437Z,11.14
2019-02-26T18:11:29.747Z,11.05
2019-02-26T18:14:00.222Z,11.07
2019-02-26T18:16:31.725Z,11.07
2019-02-26T18:19:01.475Z,11.08
2019-02-26T18:21:33.835Z,11.04
2019-02-26T18:24:03.555Z,11.00
2019-02-26T18:26:34.907Z,10.88
2019-02-26T18:29:04.168Z,10.91
2019-02-26T18:31:33.386Z,10.94
2019-02-26T18:34:02.655Z,10.92
2019-02-26T18:36:33.104Z,10.84
2019-02-26T18:39:02.726Z,10.86
2019-02-26T18:41:35.090Z,10.82
2019-02-26T18:44:06.233Z,10.87
2019-02-26T18:46:37.454Z,10.75
2019-02-26T18:49:07.426Z,10.70
2019-02-26T18:51:37.846Z,10.68
2019-02-26T18:54:07.087Z,10.74
2019-02-26T18:56:39.483Z,10.79
2019-02-26T18:59:08.500Z,10.77
2019-02-26T19:01:38.050Z,10.82
2019-02-26T19:04:08.258Z,10.82
2019-02-26T19:06:37.489Z,10.81
2019-02-26T19:09:11.485Z,10.80
2019-02-26T19:11:39.762Z,10.35
2019-02-26T19:14:09.960Z,10.07
2019-02-26T19:16:39.128Z,9.69
2019-02-26T19:19:09.084Z,9.66
2019-02-26T19:21:39.406Z,9.77
2019-02-26T19:24:12.496Z,9.68
2019-02-26T19:26:44.451Z,9.46
2019-02-26T19:29:14.423Z,9.07
2019-02-26T19:31:44.468Z,9.09
2019-02-26T19:34:13.704Z,9.24
2019-02-26T19:36:45.467Z,9.32
2019-02-26T19:39:14.802Z,9.45
2019-02-26T19:41:45.923Z,9.39
2019-02-26T19:44:15.087Z,9.36
2019-02-26T19:46:45.078Z,9.43
2019-02-26T19:49:17.600Z,9.23
2019-02-26T19:51:46.843Z,9.32
2019-02-26T19:54:16.067Z,9.42
2019-02-26T19:56:45.312Z,9.46
2019-02-26T19:59:15.914Z,9.49
2019-02-26T20:01:46.795Z,9.51
2019-02-26T20:04:17.408Z,9.44
2019-02-26T20:06:46.961Z,9.49
2019-02-26T20:09:21.851Z,9.51
2019-02-26T20:11:56.068Z,9.54
2019-02-26T20:14:24.723Z,9.57
2019-02-26T20:16:53.968Z,9.52
2019-02-26T20:19:23.189Z,9.45
2019-02-26T20:21:57.059Z,9.39
2019-02-26T20:24:27.722Z,9.18
2019-02-26T20:26:59.119Z,9.17
2019-02-26T20:29:36.265Z,9.18
2019-02-26T20:32:06.903Z,9.23
2019-02-26T20:34:36.665Z,8.99
2019-02-26T20:37:06.790Z,8.86
2019-02-26T20:39:40.652Z,8.95
2019-02-26T20:42:09.136Z,9.06
2019-02-26T20:44:42.799Z,9.03
2019-02-26T20:47:12.557Z,9.02
2019-02-26T20:49:46.256Z,9.07
2019-02-26T20:52:15.764Z,9.11
2019-02-26T20:54:45.111Z,9.10
2019-02-26T20:57:14.399Z,9.12
2019-02-26T20:59:44.133Z,9.10
2019-02-26T21:02:13.395Z,9.15
2019-02-26T21:04:44.447Z,9.18
2019-02-26T21:07:14.867Z,9.19
2019-02-26T21:09:44.099Z,9.23
2019-02-26T21:12:14.259Z,9.33
2019-02-26T21:14:43.722Z,9.29
2019-02-26T21:17:13.329Z,9.34
2019-02-26T21:19:44.318Z,9.32
2019-02-26T21:22:14.675Z,9.18
2019-02-26T21:24:46.977Z,9.18
2019-02-26T21:27:17.436Z,9.17
2019-02-26T21:29:55.610Z,9.18
2019-02-26T21:32:28.668Z,9.21
2019-02-26T21:34:57.889Z,9.25
2019-02-26T21:37:32.627Z,9.37
2019-02-26T21:40:00.304Z,9.39
2019-02-26T21:42:32.504Z,9.50
2019-02-26T21:45:03.555Z,9.51
2019-02-26T21:47:32.816Z,9.44
2019-02-26T21:50:02.034Z,9.56
2019-02-26T21:52:39.749Z,9.56
2019-02-26T21:55:10.208Z,9.66
2019-02-26T21:57:41.296Z,9.78
2019-02-26T22:00:13.496Z,9.83
2019-02-26T22:02:44.436Z,9.90
2019-02-26T22:05:14.112Z,9.90
2019-02-26T22:07:43.685Z,9.96
2019-02-26T22:10:14.778Z,9.93
2019-02-26T22:12:45.680Z,9.90
2019-02-26T22:15:16.132Z,9.95
2019-02-26T22:17:49.434Z,9.74
2019-02-26T22:20:33.011Z,9.41
2019-02-26T22:22:53.897Z,9.09
2019-02-26T22:25:25.071Z,8.53
2019-02-26T22:27:54.624Z,8.26
2019-02-26T22:30:24.166Z,8.14
2019-02-26T22:32:55.647Z,8.02
2019-02-26T22:35:26.407Z,7.97
2019-02-26T22:37:56.070Z,8.02
2019-02-26T22:40:28.915Z,7.99
2019-02-26T22:42:56.270Z,8.13
2019-02-26T22:45:27.854Z,8.20
2019-02-26T22:47:57.219Z,8.24
2019-02-26T22:50:27.281Z,8.35
2019-02-26T22:52:57.036Z,8.39
2019-02-26T22:55:26.757Z,8.43
2019-02-26T22:57:55.974Z,8.50
2019-02-26T23:00:58.312Z,8.49
2019-02-26T23:03:27.562Z,8.33
2019-02-26T23:06:01.404Z,8.13
2019-02-26T23:08:30.931Z,8.09
2019-02-26T23:11:00.283Z,8.10
2019-02-26T23:13:31.916Z,8.11
2019-02-26T23:16:01.809Z,8.15
2019-02-26T23:18:33.869Z,8.07
2019-02-26T23:21:04.616Z,8.08
2019-02-26T23:23:34.441Z,8.11
2019-02-26T23:26:03.979Z,8.09
2019-02-26T23:28:34.346Z,8.07
2019-02-26T23:31:05.429Z,8.03
2019-02-26T23:33:36.388Z,7.96
2019-02-26T23:36:08.930Z,7.88
2019-02-26T23:38:44.198Z,7.89
2019-02-26T23:41:13.969Z,7.87
2019-02-26T23:43:45.400Z,7.87
2019-02-26T23:46:15.719Z,7.84
2019-02-26T23:48:45.685Z,7.65
2019-02-26T23:51:14.938Z,7.56
2019-02-26T23:53:44.504Z,7.51
2019-02-26T23:56:16.754Z,7.19
2019-02-26T23:58:47.275Z,7.22
